KRIL

Rifle Garfield County Airport

Rifle, Colorado, USA
KRIL 252328Z 2600/2624 26013KT P6SM SKC FM260500 VRB04KT P6SM SKC FM261100 30005KT P6SM SKC FM261700 27007KT P6SM SKC
Issued Valid From Valid To
Apr-25 @ 23:28 UTC
(4 hours ago)
Apr-26 @ 00:00 UTC
(4 hours ago)
Apr-27 @ 00:00 UTC
(in 20 hours)
Apr-26 @ 00:00 to Apr-26 @ 05:00
KRIL 252328Z 2600/2624 26013KT P6SM SKC
Wind Visibility Clouds
260° at 13 knots Greater than 6 miles
  • Clear skies
From Apr-26 @ 05:00 to Apr-26 @ 11:00
FM260500 VRB04KT P6SM SKC
Wind Visibility Clouds
Variable at 4 knots Greater than 6 miles
  • Clear skies
From Apr-26 @ 11:00 to Apr-26 @ 17:00
FM261100 30005KT P6SM SKC
Wind Visibility Clouds
300° at 5 knots Greater than 6 miles
  • Clear skies
From Apr-26 @ 17:00 to Apr-27 @ 00:00
FM261700 27007KT P6SM SKC
Wind Visibility Clouds
270° at 7 knots Greater than 6 miles
  • Clear skies
KRIL 252328Z 2600/2624 26013KT P6SM SKC FM260500 VRB04KT P6SM SKC FM261100 30005KT P6SM SKC FM261700 27007KT P6SM SKC
Issued Apr-25 @ 23:28 UTC
(4 hours ago)
Valid From Apr-26 @ 00:00 UTC
(4 hours ago)
Valid To Apr-27 @ 00:00 UTC
(in 20 hours)
Apr-26 @ 00:00 - Apr-26 @ 05:00
Wind Visibility
260° at 13 knots Greater than 6 miles
Clouds
  • Clear skies
From Apr-26 @ 05:00 - Apr-26 @ 11:00
Wind Visibility
Variable at 4 knots Greater than 6 miles
Clouds
  • Clear skies
From Apr-26 @ 11:00 - Apr-26 @ 17:00
Wind Visibility
300° at 5 knots Greater than 6 miles
Clouds
  • Clear skies
From Apr-26 @ 17:00 - Apr-27 @ 00:00
Wind Visibility
270° at 7 knots Greater than 6 miles
Clouds
  • Clear skies